• Join FlightAware (Why Join?)
  • Login
  • US Flag 
01:39AM EDT


 

Airport Tracker/Info


-or-


 

Live Flight TrackerFlight Track Log ✈ VH-MZV ✈ 13-May-2013 ✈ YSCB / CBR - YSBK / BWU

Flight Track Log - Related Links

Times and Time Zones

All times are in EDT time to prevent confusion due to time zone crossing. See the VH-MZV flight status page for this flight to view local times or setup timezone preferences in your user account.

Time Position Orientation Groundspeed Altitude Reporting Facility
EDT Latitude Longitude Course Direction KTS MPH feet Rate Location/Type
04:32AM -35.2750 149.1966 19° North 111 128 2,900  Level Aus ATC (RADAR)
04:32AM -35.2618 149.2022 19° North 122 140 3,200 780 Climbing Aus ATC (RADAR)
04:33AM -35.2472 149.2189 43° Northeast 125 144 3,700 660 Climbing Aus ATC (RADAR)
04:34AM -35.2219 149.2540 49° Northeast 142 163 4,300 600 Climbing Aus ATC (RADAR)
04:34AM -35.2101 149.2708 49° Northeast 152 175 4,600 900 Climbing Aus ATC (RADAR)
04:35AM -35.1921 149.2974 50° Northeast 152 175 5,300 720 Climbing Aus ATC (RADAR)
04:35AM -35.1682 149.3216 40° Northeast 150 173 5,700 480 Climbing Aus ATC (RADAR)
04:36AM -35.1496 149.3419 42° Northeast 152 175 6,000 660 Climbing Aus ATC (RADAR)
04:37AM -35.1272 149.3677 43° Northeast 147 169 6,600 660 Climbing Aus ATC (RADAR)
04:37AM -35.1148 149.3837 46° Northeast 152 175 6,800 360 Climbing Aus ATC (RADAR)
04:38AM -35.0971 149.4051 45° Northeast 154 177 7,000 60 Climbing Aus ATC (RADAR)
04:39AM -35.0656 149.4423 44° Northeast 174 200 6,900 -60 Descending Aus ATC (RADAR)
04:39AM -35.0390 149.4732 44° Northeast 175 201 6,900  Level Aus ATC (RADAR)
04:40AM -35.0133 149.5034 44° Northeast 171 197 6,900 60 Level Aus ATC (RADAR)
04:41AM -34.9987 149.5209 45° Northeast 175 201 7,000 -120 Climbing Aus ATC (RADAR)
04:41AM -34.9781 149.5453 44° Northeast 175 201 6,800 -120 Descending Aus ATC (RADAR)
04:42AM -34.9521 149.5772 45° Northeast 176 203 6,900 60 Climbing Aus ATC (RADAR)
04:42AM -34.9317 149.6022 45° Northeast 177 204 6,900 60 Level Aus ATC (RADAR)
04:43AM -34.8971 149.6448 45° Northeast 173 199 7,000  Climbing Aus ATC (RADAR)
04:44AM -34.8824 149.6622 44° Northeast 174 200 6,900  Descending Aus ATC (RADAR)
04:44AM -34.8677 149.6794 44° Northeast 174 200 7,000  Climbing Aus ATC (RADAR)
04:45AM -34.8475 149.7037 45° Northeast 173 199 6,900 -120 Descending Aus ATC (RADAR)
04:46AM -34.8217 149.7348 45° Northeast 173 199 6,900  Level Aus ATC (RADAR)
04:46AM -34.8010 149.7593 44° Northeast 176 203 6,900 -120 Level Aus ATC (RADAR)
04:47AM -34.7715 149.7936 44° Northeast 174 200 6,800 60 Descending Aus ATC (RADAR)
04:47AM -34.7573 149.8108 45° Northeast 171 197 7,000 60 Climbing Aus ATC (RADAR)
04:48AM -34.7366 149.8341 43° Northeast 173 199 6,900 -120 Descending Aus ATC (RADAR)
04:49AM -34.7036 149.8718 43° Northeast 177 204 6,900  Level Aus ATC (RADAR)
04:49AM -34.6881 149.8889 42° Northeast 179 206 6,900  Level Aus ATC (RADAR)
04:50AM -34.6678 149.9145 46° Northeast 178 205 6,900 -120 Level Aus ATC (RADAR)
04:51AM -34.6409 149.9468 45° Northeast 178 205 6,800 60 Descending Aus ATC (RADAR)
04:51AM -34.6207 149.9726 46° Northeast 178 205 7,000 60 Climbing Aus ATC (RADAR)
04:52AM -34.5957 150.0059 48° Northeast 177 204 6,900 -120 Descending Aus ATC (RADAR)
04:52AM -34.5815 150.0241 46° Northeast 176 203 6,900  Level Aus ATC (RADAR)
04:53AM -34.5621 150.0497 47° Northeast 174 200 6,900  Level Aus ATC (RADAR)
04:54AM -34.5230 150.0999 47° Northeast 174 200 6,900  Level Aus ATC (RADAR)
04:55AM -34.5095 150.1174 47° Northeast 170 196 6,900  Level Aus ATC (RADAR)
04:55AM -34.4903 150.1405 45° Northeast 166 191 6,900  Level Aus ATC (RADAR)
04:56AM -34.4653 150.1694 44° Northeast 163 188 6,900  Level Aus ATC (RADAR)
04:57AM -34.4455 150.1919 43° Northeast 166 191 6,900  Level Aus ATC (RADAR)
04:57AM -34.4173 150.2238 43° Northeast 164 189 6,900  Level Aus ATC (RADAR)
04:58AM -34.4037 150.2402 45° Northeast 164 189 6,900  Level Aus ATC (RADAR)
04:58AM -34.3849 150.2628 45° Northeast 163 188 6,900 120 Level Aus ATC (RADAR)
04:59AM -34.3541 150.2991 44° Northeast 165 190 7,100  Climbing Aus ATC (RADAR)
05:00AM -34.3402 150.3152 44° Northeast 164 189 6,900 -300 Descending Aus ATC (RADAR)
05:00AM -34.3219 150.3381 46° Northeast 161 185 6,800 -360 Descending Aus ATC (RADAR)
05:01AM -34.2978 150.3709 48° Northeast 170 196 6,400 -480 Descending Aus ATC (RADAR)
05:02AM -34.2781 150.3961 47° Northeast 173 199 6,200 -480 Descending Aus ATC (RADAR)
05:02AM -34.2504 150.4315 47° Northeast 173 199 5,800 -420 Descending Aus ATC (RADAR)
05:03AM -34.2361 150.4489 45° Northeast 172 198 5,700 -420 Descending Aus ATC (RADAR)
05:03AM -34.2170 150.4730 46° Northeast 169 194 5,400 -480 Descending Aus ATC (RADAR)
05:04AM -34.1825 150.5145 45° Northeast 172 198 5,000 -480 Descending Aus ATC (RADAR)
05:05AM -34.1679 150.5318 45° Northeast 173 199 4,800 -540 Descending Aus ATC (RADAR)
05:05AM -34.1477 150.5562 45° Northeast 173 199 4,500 -420 Descending Aus ATC (RADAR)
05:06AM -34.1219 150.5877 45° Northeast 173 199 4,300 -480 Descending Aus ATC (RADAR)
05:07AM -34.1018 150.6128 46° Northeast 174 200 3,900 -720 Descending Aus ATC (RADAR)
05:07AM -34.0805 150.6376 44° Northeast 178 205 3,500 -720 Descending Aus ATC (RADAR)
05:08AM -34.0590 150.6623 44° Northeast 179 206 3,100 -600 Descending Aus ATC (RADAR)
05:09AM -34.0379 150.6866 44° Northeast 177 204 2,800 -720 Descending Aus ATC (RADAR)
05:09AM -34.0154 150.7240 54° Northeast 179 206 2,200 -660 Descending Aus ATC (RADAR)
05:10AM -34.0014 150.7489 56° Northeast 177 204 2,000 -480 Descending Aus ATC (RADAR)
05:10AM -33.9859 150.7778 57° Northeast 173 199 1,700 -420 Descending Aus ATC (RADAR)
05:11AM -33.9690 150.8102 58° Northeast 167 192 1,500 -360 Descending Aus ATC (RADAR)
05:12AM -33.9540 150.8377 57° Northeast 165 190 1,300 -180 Descending Aus ATC (RADAR)
05:12AM -33.9399 150.8642 57° Northeast 158 182 1,300  Level Aus ATC (RADAR)
05:13AM -33.9269 150.8901 59° Northeast 151 174 1,300 -180 Level Aus ATC (RADAR)
05:13AM -33.9131 150.9151 56° Northeast 149 171 1,100 -480 Descending Aus ATC (RADAR)
05:15AM -33.9093 150.9652 85° East 136 157 500 -600 Descending Aus ATC (RADAR)
05:15AM -33.9184 150.9812 124° Southeast 116 133 100 -840 Descending Aus ATC (RADAR)